Time,TemperatureF,DewpointF,PressureIn,WindDirection,WindDirectionDegrees,WindSpeedMPH,WindSpeedGustMPH,Humidity,HourlyPrecipIn,Conditions,Clouds,dailyrainin,SoftwareType,DateUTC
2013-09-28 00:21:00,43.0,24.0,-100.00,SE,141,0.0,2.0,46,0.00,,,-99.99,,2013-09-28 07:21:00,
2013-09-28 00:42:00,45.0,23.0,-100.00,SSE,165,2.0,3.0,41,0.00,,,-99.99,,2013-09-28 07:42:00,
2013-09-28 00:52:00,43.0,24.0,-100.00,SE,141,0.0,2.0,46,0.00,,,-99.99,,2013-09-28 07:52:00,
2013-09-28 01:02:00,43.0,24.0,-100.00,SE,141,0.0,2.0,46,0.00,,,-99.99,,2013-09-28 08:02:00,
2013-09-28 01:13:00,43.0,24.0,-100.00,SE,141,0.0,2.0,46,0.00,,,-99.99,,2013-09-28 08:13:00,
2013-09-28 01:43:00,42.0,23.0,-100.00,SSE,161,1.0,3.0,46,0.00,,,-99.99,,2013-09-28 08:43:00,
2013-09-28 02:11:00,42.0,22.0,-100.00,SE,144,0.0,2.0,45,0.00,,,-99.99,,2013-09-28 09:11:00,
2013-09-28 02:22:00,42.0,22.0,-100.00,SSE,164,1.0,2.0,45,0.00,,,-99.99,,2013-09-28 09:22:00,
2013-09-28 02:33:00,42.0,22.0,-100.00,SSE,164,1.0,2.0,45,0.00,,,-99.99,,2013-09-28 09:33:00,
2013-09-28 04:42:00,42.0,23.0,-100.00,SSE,168,1.0,2.0,47,0.00,,,-99.99,,2013-09-28 11:42:00,
2013-09-28 04:52:00,42.0,26.0,-100.00,SSE,157,0.0,1.0,52,0.00,,,-99.99,,2013-09-28 11:52:00,
2013-09-28 05:42:00,42.0,26.0,-100.00,SSE,165,1.0,2.0,53,0.00,,,-99.99,,2013-09-28 12:42:00,
2013-09-28 06:42:00,42.0,24.0,-100.00,SSE,165,1.0,2.0,49,0.00,,,-99.99,,2013-09-28 13:42:00,
2013-09-28 08:44:00,43.0,28.0,-100.00,SSE,157,0.0,2.0,55,0.00,,,-99.99,,2013-09-28 15:44:00,
2013-09-28 09:30:00,52.0,27.0,-100.00,WSW,254,1.0,5.0,37,0.00,,,-99.99,,2013-09-28 16:30:00,
2013-09-28 09:43:00,48.0,28.0,-100.00,SE,128,0.0,2.0,45,0.00,,,-99.99,,2013-09-28 16:43:00,
2013-09-28 10:13:00,52.0,27.0,-100.00,WSW,254,1.0,5.0,37,0.00,,,-99.99,,2013-09-28 17:13:00,
2013-09-28 10:23:00,52.0,27.0,-100.00,WSW,254,1.0,5.0,37,0.00,,,-99.99,,2013-09-28 17:23:00,
2013-09-28 11:12:00,54.0,31.0,-100.00,NW,319,1.0,5.0,41,0.00,,,-99.99,,2013-09-28 18:12:00,
2013-09-28 11:22:00,54.0,31.0,-100.00,NW,319,1.0,5.0,41,0.00,,,-99.99,,2013-09-28 18:22:00,
2013-09-28 11:32:00,54.0,31.0,-100.00,NW,319,1.0,5.0,41,0.00,,,-99.99,,2013-09-28 18:32:00,
2013-09-28 11:52:00,56.0,31.0,-100.00,WNW,288,2.0,9.0,38,0.00,,,-99.99,,2013-09-28 18:52:00,
2013-09-28 12:02:00,56.0,31.0,-100.00,WNW,288,2.0,9.0,38,0.00,,,-99.99,,2013-09-28 19:02:00,
2013-09-28 12:11:00,56.0,31.0,-100.00,WNW,288,2.0,9.0,38,0.00,,,-99.99,,2013-09-28 19:11:00,
2013-09-28 12:42:00,58.0,35.0,-100.00,WNW,295,1.0,4.0,42,0.00,,,-99.99,,2013-09-28 19:42:00,
2013-09-28 12:52:00,60.0,32.0,-100.00,NW,309,1.0,5.0,34,0.00,,,-99.99,,2013-09-28 19:52:00,
2013-09-28 13:02:00,60.0,32.0,-100.00,NW,309,1.0,5.0,34,0.00,,,-99.99,,2013-09-28 20:02:00,
2013-09-28 13:43:00,61.0,32.0,-100.00,WNW,298,2.0,6.0,34,0.00,,,-99.99,,2013-09-28 20:43:00,
2013-09-28 13:52:00,62.0,32.0,-100.00,NW,320,1.0,5.0,32,0.00,,,-99.99,,2013-09-28 20:52:00,
2013-09-28 14:02:00,62.0,32.0,-100.00,NW,320,1.0,5.0,32,0.00,,,-99.99,,2013-09-28 21:02:00,
2013-09-28 14:12:00,62.0,32.0,-100.00,NW,320,1.0,5.0,32,0.00,,,-99.99,,2013-09-28 21:12:00,
2013-09-28 14:22:00,62.0,32.0,-100.00,NW,320,1.0,5.0,32,0.00,,,-99.99,,2013-09-28 21:22:00,
2013-09-28 14:44:00,63.0,34.0,-100.00,NNW,332,1.0,5.0,34,0.00,,,-99.99,,2013-09-28 21:44:00,
2013-09-28 15:13:00,63.0,35.0,-100.00,NW,323,1.0,4.0,35,0.00,,,-99.99,,2013-09-28 22:13:00,
2013-09-28 15:23:00,65.0,35.0,-100.00,NW,325,1.0,5.0,33,0.00,,,-99.99,,2013-09-28 22:23:00,
2013-09-28 15:33:00,65.0,35.0,-100.00,NW,325,1.0,5.0,33,-99.99,,,-99.99,,2013-09-28 22:33:00,
2013-09-28 15:43:00,65.0,35.0,-100.00,NW,325,1.0,5.0,33,-99.99,,,-99.99,,2013-09-28 22:43:00,
2013-09-28 16:12:00,64.0,34.0,-100.00,North,1,3.0,7.0,32,0.00,,,-99.99,,2013-09-28 23:12:00,
2013-09-28 16:22:00,64.0,34.0,-100.00,North,1,3.0,7.0,32,0.00,,,-99.99,,2013-09-28 23:22:00,
2013-09-28 16:43:00,65.0,35.0,-100.00,NNE,25,3.0,6.0,33,0.00,,,-99.99,,2013-09-28 23:43:00,
2013-09-28 16:52:00,65.0,34.0,-100.00,NNE,14,2.0,6.0,32,0.00,,,-99.99,,2013-09-28 23:52:00,
2013-09-28 17:01:00,65.0,34.0,-100.00,NNE,14,2.0,6.0,32,0.00,,,-99.99,,2013-09-29 00:01:00,
2013-09-28 17:22:00,63.0,34.0,-100.00,NE,44,3.0,6.0,34,0.00,,,-99.99,,2013-09-29 00:22:00,
2013-09-28 17:43:00,62.0,34.0,-100.00,NE,35,3.0,6.0,35,0.00,,,-99.99,,2013-09-29 00:43:00,
2013-09-28 17:52:00,62.0,34.0,-100.00,NE,35,3.0,6.0,35,0.00,,,-99.99,,2013-09-29 00:52:00,
2013-09-28 18:21:00,62.0,33.0,-100.00,NE,38,4.0,9.0,34,0.00,,,-99.99,,2013-09-29 01:21:00,
2013-09-28 18:43:00,61.0,32.0,-100.00,NE,49,3.0,8.0,34,0.00,,,-99.99,,2013-09-29 01:43:00,
2013-09-28 18:52:00,60.0,32.0,-100.00,NE,45,4.0,9.0,34,0.00,,,-99.99,,2013-09-29 01:52:00,
2013-09-28 19:03:00,56.0,30.0,-100.00,East,82,2.0,6.0,37,0.00,,,-99.99,,2013-09-29 02:03:00,
2013-09-28 19:12:00,58.0,31.0,-100.00,NE,56,2.0,6.0,35,0.00,,,-99.99,,2013-09-29 02:12:00,
2013-09-28 19:43:00,56.0,30.0,-100.00,East,82,2.0,6.0,37,0.00,,,-99.99,,2013-09-29 02:43:00,
2013-09-28 19:53:00,56.0,30.0,-100.00,East,82,2.0,6.0,37,0.00,,,-99.99,,2013-09-29 02:53:00,
2013-09-28 20:23:00,54.0,26.0,-100.00,NE,34,2.0,8.0,34,0.00,,,-99.99,,2013-09-29 03:23:00,
2013-09-28 20:44:00,52.0,28.0,-100.00,WNW,284,1.0,6.0,39,0.00,,,-99.99,,2013-09-29 03:44:00,
2013-09-28 21:02:00,-999.0,-99.9,-100.00,ESE,102,1.0,4.0,-999,-99.99,,,-99.99,,2013-09-29 04:02:00,
2013-09-28 21:14:00,51.0,28.0,-100.00,ESE,102,1.0,4.0,41,0.00,,,-99.99,,2013-09-29 04:14:00,
2013-09-28 21:24:00,53.0,27.0,-100.00,East,88,1.0,6.0,36,0.00,,,-99.99,,2013-09-29 04:24:00,
2013-09-28 21:32:00,53.0,25.0,-100.00,ENE,61,3.0,8.0,34,0.00,,,-99.99,,2013-09-29 04:32:00,
2013-09-28 21:44:00,54.0,26.0,-100.00,NE,55,3.0,7.0,33,0.00,,,-99.99,,2013-09-29 04:44:00,
2013-09-28 22:13:00,53.0,25.0,-100.00,ENE,61,3.0,8.0,34,0.00,,,-99.99,,2013-09-29 05:13:00,
2013-09-28 22:22:00,53.0,25.0,-100.00,ENE,61,3.0,8.0,34,0.00,,,-99.99,,2013-09-29 05:22:00,
2013-09-28 22:52:00,50.0,25.0,-100.00,SE,136,1.0,7.0,38,0.00,,,-99.99,,2013-09-29 05:52:00,
2013-09-28 23:12:00,50.0,27.0,-100.00,ESE,116,2.0,7.0,40,0.00,,,-99.99,,2013-09-29 06:12:00,
2013-09-28 23:22:00,50.0,27.0,-100.00,ESE,116,2.0,7.0,40,0.00,,,-99.99,,2013-09-29 06:22:00,
2013-09-28 23:52:00,52.0,23.0,-100.00,East,80,3.0,10.0,32,0.00,,,-99.99,,2013-09-29 06:52:00,